sensor_id;sensor_type;location;lat;lon;timestamp;pressure;altitude;pressure_sealevel;temperature;humidity
3544;BME280;1786;52.870;9.578;2024-02-14T00:00:07;100642.31;;;13.41;55.13
3544;BME280;1786;52.870;9.578;2024-02-14T00:02:46;100642.06;;;13.45;54.54
3544;BME280;1786;52.870;9.578;2024-02-14T00:05:16;100646.88;;;13.15;55.65
3544;BME280;1786;52.870;9.578;2024-02-14T00:07:43;100640.81;;;13.37;55.22
3544;BME280;1786;52.870;9.578;2024-02-14T00:10:10;100633.75;;;13.25;55.37
3544;BME280;1786;52.870;9.578;2024-02-14T00:12:41;100636.22;;;13.28;55.53
3544;BME280;1786;52.870;9.578;2024-02-14T00:15:08;100635.59;;;13.12;55.74
3544;BME280;1786;52.870;9.578;2024-02-14T00:17:36;100623.47;;;12.96;56.15
3544;BME280;1786;52.870;9.578;2024-02-14T00:20:03;100630.16;;;12.89;56.43
3544;BME280;1786;52.870;9.578;2024-02-14T00:22:40;100621.69;;;12.60;57.12
3544;BME280;1786;52.870;9.578;2024-02-14T00:25:07;100615.38;;;12.74;56.76
3544;BME280;1786;52.870;9.578;2024-02-14T00:27:34;100618.75;;;12.76;57.14
3544;BME280;1786;52.870;9.578;2024-02-14T00:30:01;100621.88;;;12.94;56.67
3544;BME280;1786;52.870;9.578;2024-02-14T00:32:46;100618.63;;;12.90;56.92
3544;BME280;1786;52.870;9.578;2024-02-14T00:35:13;100610.94;;;12.98;56.63
3544;BME280;1786;52.870;9.578;2024-02-14T00:37:40;100605.50;;;13.13;57.03
3544;BME280;1786;52.870;9.578;2024-02-14T00:40:07;100605.75;;;12.97;56.98
3544;BME280;1786;52.870;9.578;2024-02-14T00:42:35;100612.84;;;13.33;56.24
3544;BME280;1786;52.870;9.578;2024-02-14T00:45:01;100609.72;;;13.39;56.21
3544;BME280;1786;52.870;9.578;2024-02-14T00:47:32;100607.97;;;13.27;56.14
3544;BME280;1786;52.870;9.578;2024-02-14T00:50:00;100604.28;;;13.17;56.76
3544;BME280;1786;52.870;9.578;2024-02-14T00:52:26;100597.72;;;12.49;57.55
3544;BME280;1786;52.870;9.578;2024-02-14T00:54:53;100591.34;;;12.51;57.99
3544;BME280;1786;52.870;9.578;2024-02-14T00:57:20;100597.19;;;12.44;58.65
3544;BME280;1786;52.870;9.578;2024-02-14T00:59:46;100595.06;;;12.49;58.66
3544;BME280;1786;52.870;9.578;2024-02-14T01:02:13;100588.09;;;12.48;58.73
3544;BME280;1786;52.870;9.578;2024-02-14T01:04:40;100591.78;;;12.82;57.74
3544;BME280;1786;52.870;9.578;2024-02-14T01:07:06;100588.72;;;12.51;58.55
3544;BME280;1786;52.870;9.578;2024-02-14T01:09:33;100594.94;;;12.87;57.94
3544;BME280;1786;52.870;9.578;2024-02-14T01:11:59;100584.69;;;13.07;57.36
3544;BME280;1786;52.870;9.578;2024-02-14T01:14:26;100590.22;;;12.80;58.23
3544;BME280;1786;52.870;9.578;2024-02-14T01:16:53;100580.44;;;12.56;58.60
3544;BME280;1786;52.870;9.578;2024-02-14T01:19:20;100574.66;;;12.38;59.45
3544;BME280;1786;52.870;9.578;2024-02-14T01:21:48;100570.97;;;12.28;59.28
3544;BME280;1786;52.870;9.578;2024-02-14T01:24:15;100574.28;;;12.55;58.84
3544;BME280;1786;52.870;9.578;2024-02-14T01:26:42;100567.84;;;12.34;59.55
3544;BME280;1786;52.870;9.578;2024-02-14T01:29:09;100566.59;;;12.27;59.78
3544;BME280;1786;52.870;9.578;2024-02-14T01:31:36;100566.91;;;11.84;60.54
3544;BME280;1786;52.870;9.578;2024-02-14T01:34:02;100546.28;;;12.15;60.30
3544;BME280;1786;52.870;9.578;2024-02-14T01:36:30;100545.94;;;12.19;59.98
3544;BME280;1786;52.870;9.578;2024-02-14T01:38:56;100552.50;;;12.26;59.77
3544;BME280;1786;52.870;9.578;2024-02-14T01:41:23;100548.00;;;12.52;59.33
3544;BME280;1786;52.870;9.578;2024-02-14T01:43:50;100543.78;;;12.50;59.21
3544;BME280;1786;52.870;9.578;2024-02-14T01:46:17;100544.13;;;12.69;58.72
3544;BME280;1786;52.870;9.578;2024-02-14T01:48:52;100537.03;;;12.33;59.60
3544;BME280;1786;52.870;9.578;2024-02-14T01:51:20;100536.31;;;12.18;60.23
3544;BME280;1786;52.870;9.578;2024-02-14T01:53:52;100531.97;;;12.30;59.95
3544;BME280;1786;52.870;9.578;2024-02-14T01:56:21;100525.28;;;12.61;59.45
3544;BME280;1786;52.870;9.578;2024-02-14T01:58:48;100527.38;;;12.69;59.78
3544;BME280;1786;52.870;9.578;2024-02-14T02:01:15;100529.28;;;12.43;60.31
3544;BME280;1786;52.870;9.578;2024-02-14T02:03:44;100526.59;;;12.55;59.68
3544;BME280;1786;52.870;9.578;2024-02-14T02:06:11;100518.91;;;12.64;59.63
3544;BME280;1786;52.870;9.578;2024-02-14T02:08:38;100518.59;;;12.68;60.42
3544;BME280;1786;52.870;9.578;2024-02-14T02:11:04;100523.72;;;12.83;59.86
3544;BME280;1786;52.870;9.578;2024-02-14T02:13:53;100518.34;;;12.71;60.35
3544;BME280;1786;52.870;9.578;2024-02-14T02:16:39;100514.63;;;12.74;60.29
3544;BME280;1786;52.870;9.578;2024-02-14T02:19:28;100509.28;;;12.26;61.43
3544;BME280;1786;52.870;9.578;2024-02-14T02:22:15;100512.31;;;12.45;61.45
3544;BME280;1786;52.870;9.578;2024-02-14T02:25:03;100503.09;;;12.62;61.61
3544;BME280;1786;52.870;9.578;2024-02-14T02:27:34;100499.69;;;11.99;62.25
3544;BME280;1786;52.870;9.578;2024-02-14T02:30:24;100493.22;;;12.03;62.90
3544;BME280;1786;52.870;9.578;2024-02-14T02:32:52;100489.59;;;12.04;63.07
3544;BME280;1786;52.870;9.578;2024-02-14T02:35:19;100495.34;;;12.48;62.35
3544;BME280;1786;52.870;9.578;2024-02-14T02:38:07;100495.25;;;12.85;61.27
3544;BME280;1786;52.870;9.578;2024-02-14T02:40:54;100484.50;;;12.75;61.80
3544;BME280;1786;52.870;9.578;2024-02-14T02:43:41;100485.63;;;12.60;62.40
3544;BME280;1786;52.870;9.578;2024-02-14T02:46:25;100480.50;;;12.45;62.53
3544;BME280;1786;52.870;9.578;2024-02-14T02:49:12;100481.59;;;11.67;65.47
3544;BME280;1786;52.870;9.578;2024-02-14T02:51:45;100472.38;;;11.35;66.27
3544;BME280;1786;52.870;9.578;2024-02-14T02:54:32;100475.16;;;10.93;67.99
3544;BME280;1786;52.870;9.578;2024-02-14T02:57:19;100457.88;;;11.53;66.42
3544;BME280;1786;52.870;9.578;2024-02-14T02:59:46;100456.59;;;11.72;66.03
3544;BME280;1786;52.870;9.578;2024-02-14T03:02:15;100454.41;;;11.53;66.80
3544;BME280;1786;52.870;9.578;2024-02-14T03:05:01;100454.84;;;11.46;67.24
3544;BME280;1786;52.870;9.578;2024-02-14T03:07:44;100449.19;;;11.38;68.27
3544;BME280;1786;52.870;9.578;2024-02-14T03:10:31;100444.13;;;11.22;68.29
3544;BME280;1786;52.870;9.578;2024-02-14T03:13:18;100441.19;;;10.74;69.56
3544;BME280;1786;52.870;9.578;2024-02-14T03:16:06;100450.78;;;11.41;68.36
3544;BME280;1786;52.870;9.578;2024-02-14T03:18:33;100442.31;;;11.10;69.43
3544;BME280;1786;52.870;9.578;2024-02-14T03:21:00;100443.91;;;11.51;68.04
3544;BME280;1786;52.870;9.578;2024-02-14T03:23:27;100442.09;;;11.26;68.94
3544;BME280;1786;52.870;9.578;2024-02-14T03:25:54;100427.41;;;11.35;68.83
3544;BME280;1786;52.870;9.578;2024-02-14T03:28:21;100428.03;;;11.38;68.95
3544;BME280;1786;52.870;9.578;2024-02-14T03:30:47;100425.06;;;10.92;70.13
3544;BME280;1786;52.870;9.578;2024-02-14T03:33:14;100420.63;;;11.31;69.13
3544;BME280;1786;52.870;9.578;2024-02-14T03:35:41;100417.91;;;11.19;69.57
3544;BME280;1786;52.870;9.578;2024-02-14T03:38:08;100413.13;;;10.86;70.78
3544;BME280;1786;52.870;9.578;2024-02-14T03:40:35;100409.00;;;10.95;71.11
3544;BME280;1786;52.870;9.578;2024-02-14T03:43:04;100410.25;;;10.89;71.34
3544;BME280;1786;52.870;9.578;2024-02-14T03:45:31;100400.31;;;10.93;71.67
3544;BME280;1786;52.870;9.578;2024-02-14T03:47:58;100403.88;;;10.66;72.16
3544;BME280;1786;52.870;9.578;2024-02-14T03:50:25;100401.56;;;10.74;72.28
3544;BME280;1786;52.870;9.578;2024-02-14T03:52:51;100385.63;;;10.89;71.55
3544;BME280;1786;52.870;9.578;2024-02-14T03:55:19;100385.50;;;11.16;70.99
3544;BME280;1786;52.870;9.578;2024-02-14T03:57:45;100391.31;;;11.08;71.63
3544;BME280;1786;52.870;9.578;2024-02-14T04:00:14;100387.91;;;10.80;72.04
3544;BME280;1786;52.870;9.578;2024-02-14T04:02:41;100386.53;;;10.75;72.59
3544;BME280;1786;52.870;9.578;2024-02-14T04:05:08;100389.81;;;10.78;72.78
3544;BME280;1786;52.870;9.578;2024-02-14T04:07:35;100382.69;;;11.19;71.10
3544;BME280;1786;52.870;9.578;2024-02-14T04:10:04;100387.59;;;10.72;73.37
3544;BME280;1786;52.870;9.578;2024-02-14T04:12:32;100385.25;;;10.68;73.45
3544;BME280;1786;52.870;9.578;2024-02-14T04:14:58;100380.19;;;10.77;72.78
3544;BME280;1786;52.870;9.578;2024-02-14T04:17:25;100387.31;;;10.90;73.13
3544;BME280;1786;52.870;9.578;2024-02-14T04:19:52;100383.16;;;10.73;73.58
3544;BME280;1786;52.870;9.578;2024-02-14T04:22:19;100384.84;;;10.61;74.13
3544;BME280;1786;52.870;9.578;2024-02-14T04:24:46;100384.75;;;10.88;73.31
3544;BME280;1786;52.870;9.578;2024-02-14T04:27:13;100369.13;;;10.98;73.51
3544;BME280;1786;52.870;9.578;2024-02-14T04:29:40;100368.59;;;11.05;73.08
3544;BME280;1786;52.870;9.578;2024-02-14T04:32:06;100361.41;;;10.95;73.86
3544;BME280;1786;52.870;9.578;2024-02-14T04:34:33;100376.00;;;11.00;73.10
3544;BME280;1786;52.870;9.578;2024-02-14T04:37:01;100371.94;;;11.46;72.68
3544;BME280;1786;52.870;9.578;2024-02-14T04:39:28;100369.44;;;10.93;73.68
3544;BME280;1786;52.870;9.578;2024-02-14T04:41:55;100368.50;;;10.81;74.34
3544;BME280;1786;52.870;9.578;2024-02-14T04:44:29;100374.09;;;11.02;73.71
3544;BME280;1786;52.870;9.578;2024-02-14T04:46:55;100370.50;;;11.42;72.35
3544;BME280;1786;52.870;9.578;2024-02-14T04:49:24;100377.25;;;11.46;71.95
3544;BME280;1786;52.870;9.578;2024-02-14T04:51:52;100366.97;;;11.41;72.00
3544;BME280;1786;52.870;9.578;2024-02-14T04:54:19;100370.50;;;11.42;72.28
3544;BME280;1786;52.870;9.578;2024-02-14T04:56:46;100369.84;;;11.25;72.77
3544;BME280;1786;52.870;9.578;2024-02-14T04:59:16;100366.25;;;11.39;72.61
3544;BME280;1786;52.870;9.578;2024-02-14T05:01:43;100362.50;;;12.04;70.98
3544;BME280;1786;52.870;9.578;2024-02-14T05:04:09;100370.53;;;12.16;70.72
3544;BME280;1786;52.870;9.578;2024-02-14T05:06:36;100368.84;;;12.15;70.41
3544;BME280;1786;52.870;9.578;2024-02-14T05:09:05;100368.56;;;11.44;72.32
3544;BME280;1786;52.870;9.578;2024-02-14T05:11:32;100371.09;;;11.58;72.36
3544;BME280;1786;52.870;9.578;2024-02-14T05:13:59;100364.44;;;12.02;71.15
3544;BME280;1786;52.870;9.578;2024-02-14T05:16:27;100368.03;;;12.01;70.68
3544;BME280;1786;52.870;9.578;2024-02-14T05:18:54;100365.50;;;12.24;70.29
3544;BME280;1786;52.870;9.578;2024-02-14T05:21:21;100367.16;;;12.49;69.79
3544;BME280;1786;52.870;9.578;2024-02-14T05:23:48;100356.63;;;12.36;69.60
3544;BME280;1786;52.870;9.578;2024-02-14T05:26:15;100358.00;;;12.18;70.18
3544;BME280;1786;52.870;9.578;2024-02-14T05:28:42;100347.84;;;12.36;69.95
3544;BME280;1786;52.870;9.578;2024-02-14T05:31:09;100353.00;;;12.72;69.00
3544;BME280;1786;52.870;9.578;2024-02-14T05:33:40;100341.66;;;12.59;69.65
3544;BME280;1786;52.870;9.578;2024-02-14T05:36:07;100343.72;;;12.55;69.54
3544;BME280;1786;52.870;9.578;2024-02-14T05:38:33;100342.47;;;12.13;70.77
3544;BME280;1786;52.870;9.578;2024-02-14T05:41:01;100339.34;;;12.19;71.09
3544;BME280;1786;52.870;9.578;2024-02-14T05:43:28;100338.84;;;12.38;70.13
3544;BME280;1786;52.870;9.578;2024-02-14T05:45:55;100326.50;;;12.02;71.27
3544;BME280;1786;52.870;9.578;2024-02-14T05:48:22;100332.38;;;12.18;71.10
3544;BME280;1786;52.870;9.578;2024-02-14T05:50:49;100337.72;;;12.05;71.20
3544;BME280;1786;52.870;9.578;2024-02-14T05:53:15;100337.56;;;12.55;70.53
3544;BME280;1786;52.870;9.578;2024-02-14T05:55:42;100329.28;;;12.00;71.99
3544;BME280;1786;52.870;9.578;2024-02-14T05:58:08;100332.13;;;12.45;70.78
3544;BME280;1786;52.870;9.578;2024-02-14T06:00:35;100326.16;;;12.66;70.35
3544;BME280;1786;52.870;9.578;2024-02-14T06:03:03;100326.09;;;12.43;70.77
3544;BME280;1786;52.870;9.578;2024-02-14T06:05:33;100319.13;;;12.65;70.04
3544;BME280;1786;52.870;9.578;2024-02-14T06:07:59;100323.38;;;12.32;71.14
3544;BME280;1786;52.870;9.578;2024-02-14T06:10:29;100324.81;;;12.71;70.66
3544;BME280;1786;52.870;9.578;2024-02-14T06:12:56;100315.63;;;12.53;70.59
3544;BME280;1786;52.870;9.578;2024-02-14T06:15:23;100320.53;;;12.46;71.30
3544;BME280;1786;52.870;9.578;2024-02-14T06:17:49;100329.03;;;12.74;70.55
3544;BME280;1786;52.870;9.578;2024-02-14T06:20:17;100330.94;;;13.30;68.78
3544;BME280;1786;52.870;9.578;2024-02-14T06:22:44;100332.09;;;12.92;70.11
3544;BME280;1786;52.870;9.578;2024-02-14T06:25:22;100333.78;;;12.93;70.01
3544;BME280;1786;52.870;9.578;2024-02-14T06:27:57;100338.06;;;13.29;69.00
3544;BME280;1786;52.870;9.578;2024-02-14T06:30:23;100338.13;;;13.05;69.59
3544;BME280;1786;52.870;9.578;2024-02-14T06:32:53;100333.31;;;13.21;69.46
3544;BME280;1786;52.870;9.578;2024-02-14T06:35:21;100337.78;;;13.21;69.31
3544;BME280;1786;52.870;9.578;2024-02-14T06:37:48;100339.72;;;13.53;69.01
3544;BME280;1786;52.870;9.578;2024-02-14T06:40:28;100346.63;;;13.44;68.56
3544;BME280;1786;52.870;9.578;2024-02-14T06:42:56;100346.41;;;13.91;67.76
3544;BME280;1786;52.870;9.578;2024-02-14T06:45:24;100354.16;;;13.82;68.25
3544;BME280;1786;52.870;9.578;2024-02-14T06:48:02;100365.31;;;14.20;67.05
3544;BME280;1786;52.870;9.578;2024-02-14T06:50:29;100358.38;;;14.28;66.77
3544;BME280;1786;52.870;9.578;2024-02-14T06:52:56;100354.38;;;14.02;67.56
3544;BME280;1786;52.870;9.578;2024-02-14T06:55:27;100366.16;;;14.20;67.19
3544;BME280;1786;52.870;9.578;2024-02-14T06:57:54;100364.25;;;14.76;65.91
3544;BME280;1786;52.870;9.578;2024-02-14T07:00:21;100367.69;;;14.23;67.44
3544;BME280;1786;52.870;9.578;2024-02-14T07:02:48;100359.69;;;14.02;67.87
3544;BME280;1786;52.870;9.578;2024-02-14T07:05:15;100371.34;;;14.22;67.45
3544;BME280;1786;52.870;9.578;2024-02-14T07:07:41;100366.31;;;14.07;68.05
3544;BME280;1786;52.870;9.578;2024-02-14T07:10:08;100371.19;;;14.23;67.39
3544;BME280;1786;52.870;9.578;2024-02-14T07:12:35;100375.50;;;14.36;67.32
3544;BME280;1786;52.870;9.578;2024-02-14T07:15:05;100374.50;;;14.48;67.36
3544;BME280;1786;52.870;9.578;2024-02-14T07:17:34;100363.38;;;13.78;69.07
3544;BME280;1786;52.870;9.578;2024-02-14T07:20:01;100365.41;;;14.18;68.25
3544;BME280;1786;52.870;9.578;2024-02-14T07:22:30;100365.25;;;14.63;67.48
3544;BME280;1786;52.870;9.578;2024-02-14T07:24:57;100366.41;;;14.82;66.50
3544;BME280;1786;52.870;9.578;2024-02-14T07:27:24;100371.81;;;15.01;66.18
3544;BME280;1786;52.870;9.578;2024-02-14T07:29:50;100368.88;;;15.04;66.30
3544;BME280;1786;52.870;9.578;2024-02-14T07:32:18;100361.91;;;15.34;65.40
3544;BME280;1786;52.870;9.578;2024-02-14T07:34:44;100371.00;;;15.31;65.54
3544;BME280;1786;52.870;9.578;2024-02-14T07:37:11;100376.19;;;15.33;65.89
3544;BME280;1786;52.870;9.578;2024-02-14T07:39:38;100374.16;;;15.46;65.54
3544;BME280;1786;52.870;9.578;2024-02-14T07:42:05;100376.91;;;15.35;66.11
3544;BME280;1786;52.870;9.578;2024-02-14T07:44:32;100376.38;;;14.89;67.06
3544;BME280;1786;52.870;9.578;2024-02-14T07:46:58;100375.22;;;15.34;66.12
3544;BME280;1786;52.870;9.578;2024-02-14T07:49:29;100380.47;;;15.45;65.89
3544;BME280;1786;52.870;9.578;2024-02-14T07:51:56;100374.31;;;15.24;66.10
3544;BME280;1786;52.870;9.578;2024-02-14T07:54:23;100379.03;;;15.41;65.88
3544;BME280;1786;52.870;9.578;2024-02-14T07:56:49;100368.72;;;15.27;66.90
3544;BME280;1786;52.870;9.578;2024-02-14T07:59:16;100373.34;;;15.55;66.37
3544;BME280;1786;52.870;9.578;2024-02-14T08:01:42;100379.19;;;15.40;66.23
3544;BME280;1786;52.870;9.578;2024-02-14T08:04:10;100375.47;;;15.31;67.47
3544;BME280;1786;52.870;9.578;2024-02-14T08:06:37;100375.53;;;14.68;69.04
3544;BME280;1786;52.870;9.578;2024-02-14T08:09:04;100372.94;;;14.78;68.91
3544;BME280;1786;52.870;9.578;2024-02-14T08:11:36;100374.88;;;15.18;68.28
3544;BME280;1786;52.870;9.578;2024-02-14T08:14:03;100385.97;;;15.02;68.38
3544;BME280;1786;52.870;9.578;2024-02-14T08:16:29;100387.34;;;14.96;69.09
3544;BME280;1786;52.870;9.578;2024-02-14T08:18:57;100384.06;;;14.71;69.59
3544;BME280;1786;52.870;9.578;2024-02-14T08:21:27;100388.63;;;14.81;69.99
3544;BME280;1786;52.870;9.578;2024-02-14T08:23:58;100390.38;;;15.12;69.12
3544;BME280;1786;52.870;9.578;2024-02-14T08:26:26;100392.78;;;15.15;68.98
3544;BME280;1786;52.870;9.578;2024-02-14T08:28:53;100390.38;;;14.70;70.06
3544;BME280;1786;52.870;9.578;2024-02-14T08:31:20;100388.94;;;15.08;69.18
3544;BME280;1786;52.870;9.578;2024-02-14T08:33:47;100389.47;;;14.81;69.73
3544;BME280;1786;52.870;9.578;2024-02-14T08:36:14;100387.84;;;15.42;68.78
3544;BME280;1786;52.870;9.578;2024-02-14T08:38:43;100395.47;;;14.95;70.05
3544;BME280;1786;52.870;9.578;2024-02-14T08:41:09;100395.06;;;15.20;69.41
3544;BME280;1786;52.870;9.578;2024-02-14T08:43:36;100400.50;;;14.98;70.18
3544;BME280;1786;52.870;9.578;2024-02-14T08:46:03;100395.06;;;15.20;70.02
3544;BME280;1786;52.870;9.578;2024-02-14T08:48:29;100397.28;;;15.76;68.26
3544;BME280;1786;52.870;9.578;2024-02-14T08:51:00;100396.94;;;14.87;70.77
3544;BME280;1786;52.870;9.578;2024-02-14T08:53:26;100396.91;;;15.29;70.22
3544;BME280;1786;52.870;9.578;2024-02-14T08:55:53;100398.59;;;15.61;69.44
3544;BME280;1786;52.870;9.578;2024-02-14T08:58:20;100404.44;;;15.45;69.29
3544;BME280;1786;52.870;9.578;2024-02-14T09:00:48;100402.44;;;15.17;70.33
3544;BME280;1786;52.870;9.578;2024-02-14T09:03:24;100408.78;;;15.77;69.04
3544;BME280;1786;52.870;9.578;2024-02-14T09:05:51;100410.19;;;15.81;68.89
3544;BME280;1786;52.870;9.578;2024-02-14T09:08:20;100406.75;;;15.39;69.72
3544;BME280;1786;52.870;9.578;2024-02-14T09:10:47;100409.09;;;15.53;69.62
3544;BME280;1786;52.870;9.578;2024-02-14T09:13:15;100410.66;;;15.96;68.65
3544;BME280;1786;52.870;9.578;2024-02-14T09:15:43;100410.22;;;15.91;69.28
3544;BME280;1786;52.870;9.578;2024-02-14T09:18:09;100417.81;;;15.95;68.86
3544;BME280;1786;52.870;9.578;2024-02-14T09:20:37;100417.63;;;15.56;69.76
3544;BME280;1786;52.870;9.578;2024-02-14T09:23:04;100417.31;;;15.71;70.03
3544;BME280;1786;52.870;9.578;2024-02-14T09:25:31;100420.47;;;15.65;70.20
3544;BME280;1786;52.870;9.578;2024-02-14T09:27:57;100425.13;;;16.03;69.59
3544;BME280;1786;52.870;9.578;2024-02-14T09:30:24;100419.94;;;16.01;69.68
3544;BME280;1786;52.870;9.578;2024-02-14T09:33:03;100422.88;;;15.68;70.49
3544;BME280;1786;52.870;9.578;2024-02-14T09:35:31;100419.41;;;16.08;69.77
3544;BME280;1786;52.870;9.578;2024-02-14T09:37:58;100426.53;;;16.07;69.51
3544;BME280;1786;52.870;9.578;2024-02-14T09:40:26;100423.25;;;15.84;70.00
3544;BME280;1786;52.870;9.578;2024-02-14T09:42:56;100428.13;;;15.79;70.36
3544;BME280;1786;52.870;9.578;2024-02-14T09:45:25;100422.25;;;15.54;71.54
3544;BME280;1786;52.870;9.578;2024-02-14T09:47:53;100417.69;;;15.66;71.17
3544;BME280;1786;52.870;9.578;2024-02-14T09:50:21;100426.84;;;15.43;72.14
3544;BME280;1786;52.870;9.578;2024-02-14T09:52:47;100424.38;;;15.91;70.67
3544;BME280;1786;52.870;9.578;2024-02-14T09:55:17;100422.53;;;15.82;71.21
3544;BME280;1786;52.870;9.578;2024-02-14T09:57:45;100424.50;;;15.90;70.76
3544;BME280;1786;52.870;9.578;2024-02-14T10:00:13;100431.53;;;15.60;71.36
3544;BME280;1786;52.870;9.578;2024-02-14T10:02:43;100441.44;;;15.79;71.42
3544;BME280;1786;52.870;9.578;2024-02-14T10:05:10;100439.66;;;15.89;71.43
3544;BME280;1786;52.870;9.578;2024-02-14T10:07:41;100440.84;;;16.06;70.38
3544;BME280;1786;52.870;9.578;2024-02-14T10:10:10;100441.09;;;15.63;71.95
3544;BME280;1786;52.870;9.578;2024-02-14T10:12:37;100448.97;;;16.05;71.35
3544;BME280;1786;52.870;9.578;2024-02-14T10:15:05;100451.28;;;16.29;70.13
3544;BME280;1786;52.870;9.578;2024-02-14T10:17:33;100457.69;;;16.07;70.96
3544;BME280;1786;52.870;9.578;2024-02-14T10:20:02;100460.69;;;16.23;70.97
3544;BME280;1786;52.870;9.578;2024-02-14T10:22:34;100466.22;;;16.51;69.86
3544;BME280;1786;52.870;9.578;2024-02-14T10:25:02;100469.38;;;16.15;70.78
3544;BME280;1786;52.870;9.578;2024-02-14T10:27:30;100472.47;;;16.30;70.37
3544;BME280;1786;52.870;9.578;2024-02-14T10:30:00;100474.91;;;16.43;70.32
3544;BME280;1786;52.870;9.578;2024-02-14T10:32:27;100478.41;;;15.93;71.57
3544;BME280;1786;52.870;9.578;2024-02-14T10:34:54;100480.13;;;16.64;70.04
3544;BME280;1786;52.870;9.578;2024-02-14T10:37:21;100485.22;;;16.27;71.21
3544;BME280;1786;52.870;9.578;2024-02-14T10:39:49;100488.25;;;16.62;70.60
3544;BME280;1786;52.870;9.578;2024-02-14T10:42:19;100490.31;;;16.39;70.64
3544;BME280;1786;52.870;9.578;2024-02-14T10:44:46;100488.25;;;16.72;70.41
3544;BME280;1786;52.870;9.578;2024-02-14T10:47:19;100483.44;;;16.47;70.75
3544;BME280;1786;52.870;9.578;2024-02-14T10:49:48;100493.97;;;16.38;70.85
3544;BME280;1786;52.870;9.578;2024-02-14T10:52:16;100490.63;;;16.46;70.68
3544;BME280;1786;52.870;9.578;2024-02-14T10:54:42;100492.09;;;16.79;70.13
3544;BME280;1786;52.870;9.578;2024-02-14T10:57:10;100499.81;;;17.02;69.32
3544;BME280;1786;52.870;9.578;2024-02-14T10:59:43;100497.03;;;16.94;69.32
3544;BME280;1786;52.870;9.578;2024-02-14T11:02:12;100500.53;;;17.14;69.43
3544;BME280;1786;52.870;9.578;2024-02-14T11:04:39;100494.28;;;16.64;70.26
3544;BME280;1786;52.870;9.578;2024-02-14T11:07:09;100502.19;;;17.15;69.25
3544;BME280;1786;52.870;9.578;2024-02-14T11:09:36;100499.94;;;17.29;68.71
3544;BME280;1786;52.870;9.578;2024-02-14T11:12:09;100498.53;;;17.25;68.76
3544;BME280;1786;52.870;9.578;2024-02-14T11:14:37;100503.91;;;16.86;70.08
3544;BME280;1786;52.870;9.578;2024-02-14T11:17:14;100502.19;;;16.95;69.95
3544;BME280;1786;52.870;9.578;2024-02-14T11:19:41;100508.53;;;16.94;69.54
3544;BME280;1786;52.870;9.578;2024-02-14T11:22:18;100509.69;;;17.68;67.65
3544;BME280;1786;52.870;9.578;2024-02-14T11:24:46;100502.28;;;17.62;67.68
3544;BME280;1786;52.870;9.578;2024-02-14T11:27:14;100508.53;;;17.04;69.04
3544;BME280;1786;52.870;9.578;2024-02-14T11:29:59;100508.91;;;17.28;68.34
3544;BME280;1786;52.870;9.578;2024-02-14T11:32:27;100517.63;;;17.21;68.38
3544;BME280;1786;52.870;9.578;2024-02-14T11:34:55;100520.59;;;17.27;68.36
3544;BME280;1786;52.870;9.578;2024-02-14T11:37:29;100512.53;;;16.59;70.06
3544;BME280;1786;52.870;9.578;2024-02-14T11:39:56;100509.06;;;16.98;69.35
3544;BME280;1786;52.870;9.578;2024-02-14T11:42:24;100516.75;;;17.59;68.12
3544;BME280;1786;52.870;9.578;2024-02-14T11:44:53;100516.50;;;17.33;67.72
3544;BME280;1786;52.870;9.578;2024-02-14T11:47:22;100522.97;;;17.30;68.34
3544;BME280;1786;52.870;9.578;2024-02-14T11:49:49;100522.50;;;17.64;67.64
3544;BME280;1786;52.870;9.578;2024-02-14T11:52:17;100521.19;;;17.21;68.75
3544;BME280;1786;52.870;9.578;2024-02-14T11:54:48;100514.00;;;16.83;69.45
3544;BME280;1786;52.870;9.578;2024-02-14T11:57:18;100524.13;;;16.99;69.84
3544;BME280;1786;52.870;9.578;2024-02-14T11:59:48;100526.88;;;17.46;68.60
3544;BME280;1786;52.870;9.578;2024-02-14T12:02:17;100527.78;;;17.07;69.37
3544;BME280;1786;52.870;9.578;2024-02-14T12:04:47;100532.53;;;16.84;69.67
3544;BME280;1786;52.870;9.578;2024-02-14T12:07:18;100526.09;;;16.97;68.93
3544;BME280;1786;52.870;9.578;2024-02-14T12:09:45;100526.75;;;17.38;69.08
3544;BME280;1786;52.870;9.578;2024-02-14T12:12:12;100531.69;;;17.23;68.66
3544;BME280;1786;52.870;9.578;2024-02-14T12:14:39;100530.84;;;17.22;68.82
3544;BME280;1786;52.870;9.578;2024-02-14T12:17:05;100521.69;;;17.54;67.75
3544;BME280;1786;52.870;9.578;2024-02-14T12:19:35;100532.81;;;17.20;68.65
3544;BME280;1786;52.870;9.578;2024-02-14T12:22:09;100528.72;;;17.45;68.03
3544;BME280;1786;52.870;9.578;2024-02-14T12:24:38;100534.66;;;17.29;68.83
3544;BME280;1786;52.870;9.578;2024-02-14T12:27:04;100534.88;;;17.65;67.19
3544;BME280;1786;52.870;9.578;2024-02-14T12:29:35;100536.44;;;17.58;68.09
3544;BME280;1786;52.870;9.578;2024-02-14T12:32:08;100543.88;;;17.64;67.69
3544;BME280;1786;52.870;9.578;2024-02-14T12:34:34;100541.34;;;17.63;68.00
3544;BME280;1786;52.870;9.578;2024-02-14T12:37:02;100530.31;;;17.95;67.22
3544;BME280;1786;52.870;9.578;2024-02-14T12:39:30;100533.34;;;17.53;67.94
3544;BME280;1786;52.870;9.578;2024-02-14T12:41:57;100531.09;;;17.58;67.61
3544;BME280;1786;52.870;9.578;2024-02-14T12:44:23;100538.44;;;17.46;68.31
3544;BME280;1786;52.870;9.578;2024-02-14T12:46:50;100539.56;;;17.44;68.46
3544;BME280;1786;52.870;9.578;2024-02-14T12:49:17;100534.66;;;17.29;68.85
3544;BME280;1786;52.870;9.578;2024-02-14T12:51:44;100542.66;;;17.39;69.20
3544;BME280;1786;52.870;9.578;2024-02-14T12:54:11;100531.78;;;17.60;68.21
3544;BME280;1786;52.870;9.578;2024-02-14T12:56:40;100540.81;;;18.06;67.07
3544;BME280;1786;52.870;9.578;2024-02-14T12:59:07;100541.03;;;17.76;68.33
3544;BME280;1786;52.870;9.578;2024-02-14T13:01:34;100536.19;;;17.42;68.37
3544;BME280;1786;52.870;9.578;2024-02-14T13:04:00;100544.50;;;18.05;67.82
3544;BME280;1786;52.870;9.578;2024-02-14T13:06:28;100544.09;;;18.00;67.56
3544;BME280;1786;52.870;9.578;2024-02-14T13:08:55;100547.03;;;18.07;67.44
3544;BME280;1786;52.870;9.578;2024-02-14T13:11:22;100551.50;;;18.06;67.39
3544;BME280;1786;52.870;9.578;2024-02-14T13:13:49;100552.91;;;18.10;66.97
3544;BME280;1786;52.870;9.578;2024-02-14T13:16:16;100552.44;;;17.78;68.20
3544;BME280;1786;52.870;9.578;2024-02-14T13:18:43;100545.78;;;17.91;67.57